Key West, FL (33041)

9:01 PM EDT on August 30, 2014 (GMT -0400)
KFLKEYWE12 | Change Station
CLOSE
Current Station
Personal Weather Station
Location: Key West, FL
Elevation: 6 ft
Nearby Weather Stations

Elev 6 ft 24.55 °N, 81.78 °W | Updated 6 minutes ago

Clear
Clear
86.4 °F
Feels Like 98 °F
N
10.0
Wind Variable Wind from SE
Gusts 18.0 mph

Today
High -- | Low -- °F
--% Chance of Precip.
Yesterday
High -- | Low -- °F
Precip. -- in
7:07 AM 7:47 PM
Waxing Crescent, 26% visible
Pressure 30.04 in
Visibility 10.0 miles
Clouds Clear
Heat Index 98 °F
Dew Point 77 °F
Humidity 74%
Rainfall 0.00 in
Snow Depth Not available.
UV 0.0 out of 12
Pollen 5.80 out of 12
Air Quality Not available.
Flu Activity Not available.
METAR KEYW 310053Z AUTO 11017KT 10SM CLR 31/24 A3004 RMK AO2 SLP173 T03060239

More Conditions Fewer Conditions

Pressure 30.04 in
Visibility 10.0 miles
Clouds Clear
Heat Index 98 °F
Dew Point 77 °F
Humidity 74%
Rainfall 0.00 in
Snow Depth Not available.
UV 0.0 out of 12
Pollen 5.80 out of 12
Air Quality Not available.
Flu Activity Not available.
METAR KEYW 310053Z AUTO 11017KT 10SM CLR 31/24 A3004 RMK AO2 SLP173 T03060239

More Conditions Fewer Conditions

Nowcast | as of 8:26 PM EDT on August 30, 2014

Through 930 PM...a couple of broken lines of showers with embedded thunderstorms will track west northwestward at 20 to 25 mph...over the Florida Keys and surrounding near and offshore waters. The stronger activity will produce wind gusts near 35 mph...blinding downpours...and a few lightning strikes. Island locations most likely to be affected by these passing showers will be from Sugarloaf through Marathon...and near Key Largo.

×

10-Day Weather Forecast

Almanac

Astronomy

Aug. 30, 2014 Rise Set
Actual Time 7:07 AM EDT 7:47 PM EDT
Civil Twilight 6:44 AM EDT 8:10 PM EDT
Nautical Twilight 6:17 AM EDT 8:37 PM EDT
Astronomical Twilight 5:49 AM EDT 9:05 PM EDT
Moon 11:20 AM EDT (8/30) 10:56 PM EDT (8/30)
Length of Visible Light 13h 26m
Length of Day
12h 39m
Tomorrow will be 1m 21s shorter.
Waxing Crescent, 26% of the Moon is Illuminated
Today
Waxing Crescent
Sep 2
First Quarter
Sep 8
Full
Sep 15
Last Quarter
Sep 24
New

Today's Extremes

State Highs State Lows

Community

WunderPhotos

Upload Photos

1,748,707 photos uploaded!

Nearby

Snow Depth

Station Depth Elevation
No new snow has been reported.

Earthquake Activity

City Distance Mag. Time & Date
No recent earthquake activity has been reported nearby.
Minimum magnitude displayed is 2.5.

Coastal Water Temperatures

Place Temperature
Key West, FL 88.0 °F
Vaca Key, FL 89.1 °F

Nearby Weather Stations